Time;durP1;ratioP1;P1;durP2;ratioP2;P2;SDS_P1;SDS_P2;PMS_P1;PMS_P2;Temp;Humidity;BMP_temperature;BMP_pressure;BME280_temperature;BME280_humidity;BME280_pressure;Samples;Min_cycle;Max_cycle;Signal;HPM_P1;HPM_P2
2022/05/25 00:00:58;;;;;;;2.17;1.98;;;;;;;-145.23;100.00;58621.06;5017183;28;20260;-53
2022/05/25 00:03:25;;;;;;;2.40;2.20;;;;;;;-145.23;100.00;58621.06;5021796;28;20236;-51
2022/05/25 00:05:51;;;;;;;4.13;2.63;;;;;;;-145.23;100.00;58621.06;5018360;28;20243;-52
2022/05/25 00:08:17;;;;;;;3.00;2.30;;;;;;;-145.23;100.00;58621.06;5005825;28;20307;-54
2022/05/25 00:10:44;;;;;;;2.40;2.20;;;;;;;-145.23;100.00;58621.06;5008359;28;20789;-52
2022/05/25 00:13:12;;;;;;;3.92;2.33;;;;;;;-145.23;100.00;58621.06;5014063;28;20278;-52
2022/05/25 00:15:38;;;;;;;3.22;2.42;;;;;;;-145.23;100.00;58621.06;5023841;28;20233;-52
2022/05/25 00:18:04;;;;;;;3.60;3.28;;;;;;;-145.23;100.00;58621.06;5026092;28;20233;-51
2022/05/25 00:20:30;;;;;;;2.20;2.10;;;;;;;-145.23;100.00;58621.06;5020436;28;20774;-51
2022/05/25 00:22:57;;;;;;;2.47;2.13;;;;;;;-145.23;100.00;58621.06;5018999;28;20245;-52
2022/05/25 00:25:27;;;;;;;2.33;2.13;;;;;;;-145.23;100.00;58621.06;5019512;28;20290;-53
2022/05/25 00:27:54;;;;;;;2.28;2.15;;;;;;;-145.23;100.00;58621.06;5015469;28;20264;-51
2022/05/25 00:30:25;;;;;;;2.83;1.85;;;;;;;-145.23;100.00;58621.06;5019306;28;20236;-52
2022/05/25 00:32:51;;;;;;;2.47;2.25;;;;;;;-145.23;100.00;58621.06;5021830;28;20224;-54
2022/05/25 00:35:20;;;;;;;1.98;1.88;;;;;;;-145.23;100.00;58621.06;5020664;28;20278;-52
2022/05/25 00:37:47;;;;;;;2.03;1.88;;;;;;;-145.23;100.00;58621.06;5024305;28;20310;-53
2022/05/25 00:40:15;;;;;;;2.42;2.22;;;;;;;-145.23;100.00;58621.06;5019460;28;20302;-52
2022/05/25 00:42:42;;;;;;;2.50;2.38;;;;;;;-145.23;100.00;58621.06;5023359;28;20382;-52
2022/05/25 00:45:09;;;;;;;1.95;1.85;;;;;;;-145.23;100.00;58621.06;5013990;28;20257;-53
2022/05/25 00:47:38;;;;;;;2.63;2.42;;;;;;;-145.23;100.00;58621.06;5018765;28;20694;-53
2022/05/25 00:50:06;;;;;;;3.65;2.22;;;;;;;-145.23;100.00;58621.06;5021209;28;20902;-53
2022/05/25 00:52:33;;;;;;;2.65;2.03;;;;;;;-145.23;100.00;58621.06;5025642;28;20780;-52
2022/05/25 00:55:01;;;;;;;4.47;2.17;;;;;;;-145.23;100.00;58621.06;5014473;28;20257;-52
2022/05/25 00:57:31;;;;;;;2.08;1.98;;;;;;;-145.23;100.00;58621.06;5016584;28;20277;-52
2022/05/25 01:00:02;;;;;;;4.68;2.72;;;;;;;-145.23;100.00;58621.06;5021116;28;20256;-53
2022/05/25 01:02:29;;;;;;;2.45;2.25;;;;;;;-145.23;100.00;58621.06;5016582;28;20298;-52
2022/05/25 01:04:57;;;;;;;3.83;2.50;;;;;;;-145.23;100.00;58621.06;5016596;28;20701;-51
2022/05/25 01:07:45;;;;;;;2.60;2.40;;;;;;;-145.23;100.00;58621.06;5023477;28;20306;-52
2022/05/25 01:10:24;;;;;;;2.65;2.33;;;;;;;-145.23;100.00;58621.06;5016699;28;20233;-55
2022/05/25 01:12:59;;;;;;;2.35;2.15;;;;;;;-145.23;100.00;58621.06;5016238;28;20376;-51
2022/05/25 01:15:29;;;;;;;3.05;2.85;;;;;;;-145.23;100.00;58621.06;5023081;28;20256;-54
2022/05/25 01:18:06;;;;;;;2.40;2.20;;;;;;;-145.23;100.00;58621.06;5024106;28;20225;-52
2022/05/25 01:20:37;;;;;;;5.20;2.95;;;;;;;-145.23;100.00;58621.06;5014779;28;20228;-52
2022/05/25 01:23:22;;;;;;;3.10;2.13;;;;;;;-145.23;100.00;58621.06;5021678;28;20229;-52
2022/05/25 01:26:31;;;;;;;6.95;2.67;;;;;;;-145.23;100.00;58621.06;5020880;28;20232;-52
2022/05/25 01:29:08;;;;;;;5.68;3.28;;;;;;;-145.23;100.00;58621.06;5013836;28;20232;-53
2022/05/25 01:31:42;;;;;;;2.70;2.50;;;;;;;-145.23;100.00;58621.06;5019904;28;20228;-51
2022/05/25 01:34:11;;;;;;;4.50;2.95;;;;;;;-145.23;100.00;58621.06;5016357;28;20646;-53
2022/05/25 01:36:42;;;;;;;3.22;2.88;;;;;;;-145.23;100.00;58621.06;5015912;28;20236;-53
2022/05/25 01:39:10;;;;;;;3.05;2.78;;;;;;;-145.23;100.00;58621.06;5022192;28;20248;-52
2022/05/25 01:41:40;;;;;;;3.33;2.90;;;;;;;-145.23;100.00;58621.06;5020327;28;20233;-52
2022/05/25 01:44:09;;;;;;;3.00;2.80;;;;;;;-145.23;100.00;58621.06;5014910;28;20770;-52
2022/05/25 01:46:40;;;;;;;2.53;2.35;;;;;;;-145.23;100.00;58621.06;5020571;28;20248;-53
2022/05/25 01:49:09;;;;;;;3.40;3.13;;;;;;;-145.23;100.00;58621.06;5017809;28;20279;-52
2022/05/25 01:51:39;;;;;;;3.30;2.83;;;;;;;-145.23;100.00;58621.06;5006778;28;20233;-55
2022/05/25 01:54:08;;;;;;;4.75;2.92;;;;;;;-145.23;100.00;58621.06;5018300;28;20710;-53
2022/05/25 01:56:36;;;;;;;3.20;2.95;;;;;;;-145.23;100.00;58621.06;5019481;28;20236;-51
2022/05/25 01:59:05;;;;;;;3.15;2.90;;;;;;;-145.23;100.00;58621.06;5011939;28;20260;-54
2022/05/25 02:01:31;;;;;;;3.70;3.40;;;;;;;-145.23;100.00;58621.06;5019297;28;20238;-61
2022/05/25 02:07:00;;;;;;;4.75;3.45;;;;;;;-145.23;100.00;58621.06;5019015;28;20303;-54
2022/05/25 02:09:41;;;;;;;3.38;2.92;;;;;;;-145.23;100.00;58621.06;5020157;28;20317;-52
2022/05/25 02:12:13;;;;;;;4.63;3.33;;;;;;;-145.23;100.00;58621.06;5020578;28;20690;-54
2022/05/25 02:14:47;;;;;;;2.75;2.42;;;;;;;-145.23;100.00;58621.06;5016684;28;20240;-52
2022/05/25 02:17:22;;;;;;;3.83;2.97;;;;;;;-145.23;100.00;58621.06;5022137;28;20310;-52
2022/05/25 02:19:54;;;;;;;3.28;2.97;;;;;;;-145.23;100.00;58621.06;5020400;28;20225;-52
2022/05/25 02:22:22;;;;;;;2.67;2.47;;;;;;;-145.23;100.00;58621.06;5024300;28;20275;-53
2022/05/25 02:24:51;;;;;;;3.22;2.90;;;;;;;-145.23;100.00;58621.06;5019444;28;20309;-52
2022/05/25 02:27:23;;;;;;;3.13;2.92;;;;;;;-145.23;100.00;58621.06;5022098;28;20242;-52
2022/05/25 02:29:51;;;;;;;3.25;2.95;;;;;;;-145.23;100.00;58621.06;5021036;28;20598;-53
2022/05/25 02:32:23;;;;;;;3.30;3.00;;;;;;;-145.23;100.00;58621.06;5025649;28;20272;-53
2022/05/25 02:34:53;;;;;;;3.47;3.28;;;;;;;-145.23;100.00;58621.06;5022201;28;20241;-53
2022/05/25 02:37:22;;;;;;;2.97;2.78;;;;;;;-145.23;100.00;58621.06;5019584;28;20229;-52
2022/05/25 02:39:50;;;;;;;3.80;2.83;;;;;;;-145.23;100.00;58621.06;5024511;28;20307;-51
2022/05/25 02:42:17;;;;;;;5.00;3.80;;;;;;;-145.23;100.00;58621.06;5013814;28;20758;-52
2022/05/25 02:44:44;;;;;;;3.47;3.15;;;;;;;-145.23;100.00;58621.06;5022502;28;20567;-51
2022/05/25 02:47:11;;;;;;;3.70;3.15;;;;;;;-145.23;100.00;58621.06;5011036;28;20233;-51
2022/05/25 02:49:38;;;;;;;3.90;2.70;;;;;;;-145.23;100.00;58621.06;5020531;28;20314;-52
2022/05/25 02:52:07;;;;;;;3.20;3.00;;;;;;;-145.23;100.00;58621.06;5018579;28;20310;-53
2022/05/25 02:54:34;;;;;;;2.80;2.60;;;;;;;-145.23;100.00;58621.06;5021593;28;20244;-52
2022/05/25 02:57:00;;;;;;;3.42;3.20;;;;;;;-145.23;100.00;58621.06;5017814;28;20777;-52
2022/05/25 02:59:27;;;;;;;3.55;3.33;;;;;;;-145.23;100.00;58621.06;5018534;28;20278;-52
2022/05/25 03:01:53;;;;;;;3.42;3.13;;;;;;;-145.23;100.00;58621.06;5024455;28;20307;-53
2022/05/25 03:04:20;;;;;;;3.78;3.47;;;;;;;-145.23;100.00;58621.06;5024174;28;20249;-52
2022/05/25 03:06:46;;;;;;;3.30;3.10;;;;;;;-145.23;100.00;58621.06;5016049;28;20278;-52
2022/05/25 03:09:14;;;;;;;3.42;3.15;;;;;;;-145.23;100.00;58621.06;5017713;28;20228;-53
2022/05/25 03:11:41;;;;;;;3.58;3.28;;;;;;;-145.23;100.00;58621.06;5023268;28;20282;-52
2022/05/25 03:14:08;;;;;;;3.47;3.22;;;;;;;-145.23;100.00;58621.06;5018491;28;20225;-52
2022/05/25 03:16:34;;;;;;;3.60;3.10;;;;;;;-145.23;100.00;58621.06;5018673;28;20233;-51
2022/05/25 03:19:01;;;;;;;3.80;3.47;;;;;;;-145.23;100.00;58621.06;5016926;28;20256;-52
2022/05/25 03:21:27;;;;;;;3.33;3.00;;;;;;;-145.23;100.00;58621.06;5019078;28;20229;-53
2022/05/25 03:23:54;;;;;;;3.45;3.15;;;;;;;-145.23;100.00;58621.06;5022479;28;20240;-51
2022/05/25 03:26:21;;;;;;;3.60;3.13;;;;;;;-145.23;100.00;58621.06;5019939;28;20233;-52
2022/05/25 03:28:48;;;;;;;4.22;3.92;;;;;;;-145.23;100.00;58621.06;5015900;28;20263;-52
2022/05/25 03:31:15;;;;;;;4.07;3.40;;;;;;;-145.23;100.00;58621.06;5022834;28;20241;-53
2022/05/25 03:33:41;;;;;;;4.15;3.75;;;;;;;-145.23;100.00;58621.06;5024391;28;20283;-53
2022/05/25 03:36:08;;;;;;;5.57;3.33;;;;;;;-145.23;100.00;58621.06;5020176;28;20233;-53
2022/05/25 03:38:35;;;;;;;3.83;3.45;;;;;;;-145.23;100.00;58621.06;5015303;28;20237;-52
2022/05/25 03:41:02;;;;;;;4.22;3.67;;;;;;;-145.23;100.00;58621.06;5019324;28;20707;-53
2022/05/25 03:43:31;;;;;;;4.53;2.97;;;;;;;-145.23;100.00;58621.06;5026967;28;20232;-53
2022/05/25 03:45:58;;;;;;;4.30;3.78;;;;;;;-145.23;100.00;58621.06;5022175;28;20224;-53
2022/05/25 03:48:24;;;;;;;3.30;3.00;;;;;;;-145.23;100.00;58621.06;5025858;28;20267;-53
2022/05/25 03:50:50;;;;;;;3.42;3.13;;;;;;;-145.23;100.00;58621.06;5019630;28;20233;-54
2022/05/25 03:53:17;;;;;;;2.90;2.67;;;;;;;-145.23;100.00;58621.06;5022584;28;20228;-52
2022/05/25 03:55:44;;;;;;;4.55;4.20;;;;;;;-145.23;100.00;58621.06;5015144;28;20232;-50
2022/05/25 03:58:11;;;;;;;3.83;3.53;;;;;;;-145.23;100.00;58621.06;5019726;28;20370;-53
2022/05/25 04:00:38;;;;;;;3.90;3.58;;;;;;;-145.23;100.00;58621.06;5016206;28;20359;-52
2022/05/25 04:03:05;;;;;;;3.38;3.17;;;;;;;-145.23;100.00;58621.06;5021920;28;20232;-52
2022/05/25 04:05:33;;;;;;;3.70;3.40;;;;;;;-145.23;100.00;58621.06;5016109;28;20237;-53
2022/05/25 04:08:01;;;;;;;3.78;3.08;;;;;;;-145.23;100.00;58621.06;5020802;28;20229;-53
2022/05/25 04:10:28;;;;;;;3.45;3.15;;;;;;;-145.23;100.00;58621.06;5012625;28;20310;-53
2022/05/25 04:12:54;;;;;;;3.55;3.25;;;;;;;-145.23;100.00;58621.06;5022675;28;20707;-52
2022/05/25 04:15:23;;;;;;;3.58;3.30;;;;;;;-145.23;100.00;58621.06;5022183;28;20719;-54
2022/05/25 04:17:51;;;;;;;3.72;3.42;;;;;;;-145.23;100.00;58621.06;5022029;28;20240;-52
2022/05/25 04:20:19;;;;;;;3.50;3.20;;;;;;;-145.23;100.00;58621.06;5011621;28;20718;-53
2022/05/25 04:22:46;;;;;;;4.38;4.00;;;;;;;-145.23;100.00;58621.06;5023916;28;20302;-53
2022/05/25 04:25:15;;;;;;;4.00;3.70;;;;;;;-145.23;100.00;58621.06;5025458;28;20236;-52
2022/05/25 04:27:43;;;;;;;3.78;3.47;;;;;;;-145.23;100.00;58621.06;5021516;28;20236;-52
2022/05/25 04:30:14;;;;;;;3.60;3.40;;;;;;;-145.23;100.00;58621.06;5017688;28;20237;-53
2022/05/25 04:32:41;;;;;;;3.83;3.53;;;;;;;-145.23;100.00;58621.06;5019715;28;20234;-52
2022/05/25 04:35:09;;;;;;;3.97;3.55;;;;;;;-145.23;100.00;58621.06;5019239;28;20699;-52
2022/05/25 04:37:52;;;;;;;4.32;3.92;;;;;;;-145.23;100.00;58621.06;5011237;28;20288;-53
2022/05/25 04:40:21;;;;;;;5.72;3.63;;;;;;;-145.23;100.00;58621.06;5005947;28;20233;-52
2022/05/25 04:42:48;;;;;;;4.05;3.75;;;;;;;-145.23;100.00;58621.06;5011910;28;20229;-53
2022/05/25 04:45:14;;;;;;;3.97;3.67;;;;;;;-145.23;100.00;58621.06;5023087;28;20318;-52
2022/05/25 04:47:42;;;;;;;3.63;3.33;;;;;;;-145.23;100.00;58621.06;5020769;28;20221;-53
2022/05/25 04:50:11;;;;;;;4.43;3.63;;;;;;;-145.23;100.00;58621.06;5019047;28;20706;-53
2022/05/25 04:52:38;;;;;;;5.45;3.67;;;;;;;-145.23;100.00;58621.06;5023763;28;20232;-53
2022/05/25 04:55:06;;;;;;;3.65;3.42;;;;;;;-145.23;100.00;58621.06;5020079;28;20228;-54
2022/05/25 04:57:31;;;;;;;4.15;3.85;;;;;;;-145.23;100.00;58621.06;5009803;28;20287;-62
2022/05/25 04:59:59;;;;;;;4.57;4.18;;;;;;;-145.23;100.00;58621.06;5013956;28;20229;-52
2022/05/25 05:02:26;;;;;;;4.05;3.72;;;;;;;-145.23;100.00;58621.06;5022946;28;20254;-51
2022/05/25 05:04:52;;;;;;;3.85;3.55;;;;;;;-145.23;100.00;58621.06;5014031;28;20322;-53
2022/05/25 05:07:29;;;;;;;4.05;3.75;;;;;;;-145.23;100.00;58621.06;5024190;28;20225;-52
2022/05/25 05:09:55;;;;;;;3.83;3.60;;;;;;;-145.23;100.00;58621.06;5020814;28;20232;-52
2022/05/25 05:12:22;;;;;;;5.72;4.75;;;;;;;-145.23;100.00;58621.06;5024352;28;20233;-53
2022/05/25 05:14:48;;;;;;;4.55;4.15;;;;;;;-145.23;100.00;58621.06;5019952;28;20284;-53
2022/05/25 05:17:14;;;;;;;4.65;4.22;;;;;;;-145.23;100.00;58621.06;5021452;28;20256;-53
2022/05/25 05:19:41;;;;;;;4.40;4.10;;;;;;;-145.23;100.00;58621.06;5017808;28;20224;-53
2022/05/25 05:22:07;;;;;;;4.80;4.40;;;;;;;-145.23;100.00;58621.06;5022110;28;20282;-53
2022/05/25 05:24:35;;;;;;;5.10;4.70;;;;;;;-145.23;100.00;58621.06;5023916;28;20246;-55
2022/05/25 05:27:02;;;;;;;8.07;3.78;;;;;;;-145.23;100.00;58621.06;5019280;28;20312;-52
2022/05/25 05:29:30;;;;;;;4.88;4.38;;;;;;;-145.23;100.00;58621.06;5013205;28;20237;-53
2022/05/25 05:31:57;;;;;;;4.60;4.20;;;;;;;-145.23;100.00;58621.06;5019528;28;20451;-52
2022/05/25 05:34:27;;;;;;;3.70;3.40;;;;;;;-145.23;100.00;58621.06;5019933;28;20382;-53
2022/05/25 05:36:56;;;;;;;4.13;3.78;;;;;;;-145.23;100.00;58621.06;5018736;28;20240;-54
2022/05/25 05:39:24;;;;;;;3.70;3.28;;;;;;;-145.23;100.00;58621.06;5017853;28;20267;-53
2022/05/25 05:41:54;;;;;;;3.28;3.08;;;;;;;-145.23;100.00;58621.06;5018005;28;20241;-52
2022/05/25 05:44:23;;;;;;;4.65;3.40;;;;;;;-145.23;100.00;58621.06;5018354;28;20236;-52
2022/05/25 05:46:51;;;;;;;3.30;3.00;;;;;;;-145.23;100.00;58621.06;5020301;28;20317;-53
2022/05/25 05:49:18;;;;;;;3.28;3.08;;;;;;;-145.23;100.00;58621.06;5008132;28;20637;-52
2022/05/25 05:51:44;;;;;;;3.67;3.15;;;;;;;-145.23;100.00;58621.06;5023902;28;20248;-52
2022/05/25 05:54:11;;;;;;;3.15;2.78;;;;;;;-145.23;100.00;58621.06;5007963;28;20284;-53
2022/05/25 05:56:37;;;;;;;3.25;2.97;;;;;;;-145.23;100.00;58621.06;5012277;28;20233;-53
2022/05/25 05:59:05;;;;;;;5.05;3.92;;;;;;;-145.23;100.00;58621.06;5021742;28;20324;-52
2022/05/25 06:01:31;;;;;;;4.95;3.17;;;;;;;-145.23;100.00;58621.06;5023438;28;20256;-52
2022/05/25 06:03:58;;;;;;;3.63;3.25;;;;;;;-145.23;100.00;58621.06;5025808;28;20271;-53
2022/05/25 06:06:24;;;;;;;4.22;3.83;;;;;;;-145.23;100.00;58621.06;5025972;28;20232;-52
2022/05/25 06:08:51;;;;;;;5.13;4.28;;;;;;;-145.23;100.00;58621.06;5022573;28;20607;-51
2022/05/25 06:11:18;;;;;;;3.90;3.60;;;;;;;-145.23;100.00;58621.06;5022298;28;20723;-52
2022/05/25 06:13:45;;;;;;;6.28;4.35;;;;;;;-145.23;100.00;58621.06;5021106;28;20283;-52
2022/05/25 06:21:40;;;;;;;3.65;3.35;;;;;;;-145.23;100.00;58621.06;5025313;28;20289;-53
2022/05/25 06:24:07;;;;;;;3.70;3.40;;;;;;;-145.23;100.00;58621.06;5020612;28;20235;-53
2022/05/25 06:26:34;;;;;;;3.95;3.65;;;;;;;-145.23;100.00;58621.06;5025149;28;20240;-55
2022/05/25 06:29:01;;;;;;;5.70;4.28;;;;;;;-145.23;100.00;58621.06;5013492;28;20249;-53
2022/05/25 06:31:30;;;;;;;4.85;4.45;;;;;;;-145.23;100.00;58621.06;5016710;28;20664;-53
2022/05/25 06:33:57;;;;;;;6.63;4.18;;;;;;;-145.23;100.00;58621.06;5016599;28;20232;-53
2022/05/25 06:36:25;;;;;;;4.63;3.65;;;;;;;-145.23;100.00;58621.06;5019707;28;20236;-52
2022/05/25 06:38:52;;;;;;;3.72;2.95;;;;;;;-145.23;100.00;58621.06;5017368;28;20259;-52
2022/05/25 06:41:18;;;;;;;4.90;3.92;;;;;;;-145.23;100.00;58621.06;5022754;28;20269;-53
2022/05/25 06:43:45;;;;;;;4.65;4.15;;;;;;;-145.23;100.00;58621.06;5027275;28;20319;-52
2022/05/25 06:46:13;;;;;;;3.97;3.53;;;;;;;-145.23;100.00;58621.06;5022421;28;20236;-52
2022/05/25 06:48:41;;;;;;;4.35;3.65;;;;;;;-145.23;100.00;58621.06;5025537;28;20275;-53
2022/05/25 06:51:11;;;;;;;5.57;4.93;;;;;;;-145.23;100.00;58621.06;5022726;28;20714;-54
2022/05/25 06:53:38;;;;;;;5.40;4.90;;;;;;;-145.23;100.00;58621.06;5016876;28;20233;-54
2022/05/25 06:56:05;;;;;;;6.22;5.63;;;;;;;-145.23;100.00;58621.06;5020863;28;20287;-53
2022/05/25 06:58:31;;;;;;;7.72;5.63;;;;;;;-145.23;100.00;58621.06;5024381;28;20236;-53
2022/05/25 07:00:57;;;;;;;4.20;3.90;;;;;;;-145.23;100.00;58621.06;5016780;28;20751;-52
2022/05/25 07:03:24;;;;;;;5.60;3.70;;;;;;;-145.23;100.00;58621.06;5023872;28;20346;-52
2022/05/25 07:05:52;;;;;;;4.75;3.70;;;;;;;-145.23;100.00;58621.06;5015488;28;20379;-53
2022/05/25 07:08:18;;;;;;;3.83;3.53;;;;;;;-145.23;100.00;58621.06;5023596;28;20732;-51
2022/05/25 07:10:46;;;;;;;3.70;3.40;;;;;;;-145.23;100.00;58621.06;5014867;28;20233;-52
2022/05/25 07:13:16;;;;;;;3.17;2.97;;;;;;;-145.23;100.00;58621.06;5020894;28;20596;-53
2022/05/25 07:15:43;;;;;;;3.05;2.80;;;;;;;-145.23;100.00;58621.06;5021572;28;20221;-52
2022/05/25 07:18:10;;;;;;;3.00;2.80;;;;;;;-145.23;100.00;58621.06;5022273;28;20233;-52
2022/05/25 07:20:37;;;;;;;3.63;2.88;;;;;;;-145.23;100.00;58621.06;5018341;28;20259;-52
2022/05/25 07:23:05;;;;;;;3.22;2.80;;;;;;;-145.23;100.00;58621.06;5026395;28;20225;-52
2022/05/25 07:25:31;;;;;;;2.88;2.67;;;;;;;-145.23;100.00;58621.06;5024820;28;20766;-51
2022/05/25 07:27:58;;;;;;;3.70;2.60;;;;;;;-145.23;100.00;58621.06;5011262;28;20315;-53
2022/05/25 07:30:24;;;;;;;4.07;2.25;;;;;;;-145.23;100.00;58621.06;5018634;28;20237;-51
2022/05/25 07:32:51;;;;;;;2.72;2.53;;;;;;;-145.23;100.00;58621.06;5021136;28;20331;-53
2022/05/25 07:35:17;;;;;;;2.20;2.10;;;;;;;-145.23;100.00;58621.06;5017733;28;20688;-52
2022/05/25 07:37:47;;;;;;;3.05;2.72;;;;;;;-145.23;100.00;58621.06;5022452;28;20256;-55
2022/05/25 07:40:21;;;;;;;2.38;2.25;;;;;;;-145.23;100.00;58621.06;5013211;28;20705;-52
2022/05/25 07:42:50;;;;;;;2.88;2.67;;;;;;;-145.23;100.00;58621.06;5020433;28;20316;-52
2022/05/25 07:45:17;;;;;;;2.45;2.25;;;;;;;-145.23;100.00;58621.06;5019927;28;20236;-53
2022/05/25 07:47:43;;;;;;;3.83;2.38;;;;;;;-145.23;100.00;58621.06;5024946;28;21039;-52
2022/05/25 07:50:10;;;;;;;3.22;2.83;;;;;;;-145.23;100.00;58621.06;5023536;28;20236;-53
2022/05/25 07:52:38;;;;;;;3.75;3.33;;;;;;;-145.23;100.00;58621.06;5025836;28;20251;-53
2022/05/25 07:55:06;;;;;;;4.20;2.88;;;;;;;-145.23;100.00;58621.06;5018561;28;20232;-59
2022/05/25 07:57:34;;;;;;;7.47;3.22;;;;;;;-145.23;100.00;58621.06;5018389;28;20390;-52
2022/05/25 08:00:00;;;;;;;3.20;2.92;;;;;;;-145.23;100.00;58621.06;5016435;28;20283;-52
2022/05/25 08:07:59;;;;;;;3.13;2.92;;;;;;;-145.23;100.00;58621.06;5024830;28;20232;-52
2022/05/25 08:10:27;;;;;;;3.80;2.90;;;;;;;-145.23;100.00;58621.06;5021554;28;20228;-53
2022/05/25 08:12:56;;;;;;;3.50;2.72;;;;;;;-145.23;100.00;58621.06;5018906;28;20252;-52
2022/05/25 08:15:23;;;;;;;3.72;3.00;;;;;;;-145.23;100.00;58621.06;5019292;28;20243;-53
2022/05/25 08:17:50;;;;;;;3.30;3.00;;;;;;;-145.23;100.00;58621.06;5022499;28;20228;-52
2022/05/25 08:20:16;;;;;;;4.30;3.50;;;;;;;-145.23;100.00;58621.06;5023393;28;20229;-52
2022/05/25 08:22:43;;;;;;;4.22;3.45;;;;;;;-145.23;100.00;58621.06;5023030;28;20264;-53
2022/05/25 08:25:12;;;;;;;3.40;3.10;;;;;;;-145.23;100.00;58621.06;5010870;28;20233;-53
2022/05/25 08:27:39;;;;;;;2.70;2.50;;;;;;;-145.23;100.00;58621.06;5016647;28;20233;-51
2022/05/25 08:30:08;;;;;;;3.72;3.00;;;;;;;-145.23;100.00;58621.06;5015826;28;20229;-53
2022/05/25 08:32:34;;;;;;;3.20;3.00;;;;;;;-145.23;100.00;58621.06;5012257;28;20328;-58
2022/05/25 08:35:01;;;;;;;5.75;3.75;;;;;;;-145.23;100.00;58621.06;5020870;28;20260;-52
2022/05/25 08:37:27;;;;;;;6.70;3.83;;;;;;;-145.23;100.00;58621.06;5020182;28;20236;-52
2022/05/25 08:39:54;;;;;;;3.20;3.00;;;;;;;-145.23;100.00;58621.06;5020583;28;20586;-54
2022/05/25 08:42:22;;;;;;;4.57;3.10;;;;;;;-145.23;100.00;58621.06;5015569;28;20328;-54
2022/05/25 08:44:50;;;;;;;2.88;2.67;;;;;;;-145.23;100.00;58621.06;5020680;28;20252;-53
2022/05/25 08:47:18;;;;;;;4.50;3.40;;;;;;;-145.23;100.00;58621.06;5019655;28;20440;-53
2022/05/25 08:49:47;;;;;;;5.03;3.60;;;;;;;-145.23;100.00;58621.06;5016096;28;20458;-52
2022/05/25 08:52:23;;;;;;;3.55;3.20;;;;;;;-145.23;100.00;58621.06;5019943;28;20240;-53
2022/05/25 08:54:49;;;;;;;5.28;3.45;;;;;;;-145.23;100.00;58621.06;5015757;28;20229;-54
2022/05/25 08:57:21;;;;;;;5.00;3.50;;;;;;;-145.23;100.00;58621.06;5019273;28;20650;-52
2022/05/25 08:59:51;;;;;;;4.28;3.58;;;;;;;-145.23;100.00;58621.06;5023705;28;20666;-52
2022/05/25 09:02:25;;;;;;;3.80;3.08;;;;;;;-145.23;100.00;58621.06;5015113;28;20245;-53
2022/05/25 09:04:55;;;;;;;3.45;2.63;;;;;;;-145.23;100.00;58621.06;5011107;28;20323;-52
2022/05/25 09:07:26;;;;;;;4.53;2.70;;;;;;;-145.23;100.00;58621.06;5019751;28;20328;-52
2022/05/25 09:09:52;;;;;;;3.10;2.88;;;;;;;-145.23;100.00;58621.06;5015986;28;20221;-52
2022/05/25 09:12:23;;;;;;;2.53;2.33;;;;;;;-145.23;100.00;58621.06;5024118;28;20228;-53
2022/05/25 09:14:53;;;;;;;2.53;2.25;;;;;;;-145.23;100.00;58621.06;5025493;28;20231;-53
2022/05/25 09:17:24;;;;;;;2.10;2.00;;;;;;;-145.23;100.00;58621.06;5028890;28;20233;-51
2022/05/25 09:19:52;;;;;;;3.70;2.92;;;;;;;-145.23;100.00;58621.06;5029844;28;20562;-52
2022/05/25 09:22:21;;;;;;;2.28;2.08;;;;;;;-145.23;100.00;58621.06;5025186;28;20316;-60
2022/05/25 09:24:48;;;;;;;3.53;2.70;;;;;;;-145.23;100.00;58621.06;5033593;28;20969;-55
2022/05/25 09:27:17;;;;;;;2.60;2.40;;;;;;;-145.23;100.00;58621.06;5026723;28;20312;-53
2022/05/25 09:29:44;;;;;;;5.40;2.38;;;;;;;-145.23;100.00;58621.06;5028779;28;20290;-52
2022/05/25 09:32:32;;;;;;;4.78;2.80;;;;;;;-145.23;100.00;58621.06;5020516;28;20316;-52
2022/05/25 09:35:01;;;;;;;2.30;2.10;;;;;;;-145.23;100.00;58621.06;5022540;28;20707;-51
2022/05/25 09:37:33;;;;;;;2.20;2.10;;;;;;;-145.23;100.00;58621.06;5021689;28;20232;-51
2022/05/25 09:40:03;;;;;;;1.63;1.50;;;;;;;-145.23;100.00;58621.06;5022084;28;20236;-52
2022/05/25 09:42:34;;;;;;;1.70;1.60;;;;;;;-145.23;100.00;58621.06;5015864;28;20288;-52
2022/05/25 09:45:01;;;;;;;2.85;1.52;;;;;;;-145.23;100.00;58621.06;5021473;28;20246;-53
2022/05/25 09:47:41;;;;;;;1.55;1.45;;;;;;;-145.23;100.00;58621.06;5014806;28;21255;-51
2022/05/25 09:50:09;;;;;;;1.85;1.73;;;;;;;-145.23;100.00;58621.06;5015774;28;20764;-53
2022/05/25 09:52:41;;;;;;;2.70;1.90;;;;;;;-145.23;100.00;58621.06;5023805;28;20477;-53
2022/05/25 09:55:13;;;;;;;2.35;2.15;;;;;;;-145.23;100.00;58621.06;5022862;28;20265;-53
2022/05/25 09:57:43;;;;;;;1.88;1.73;;;;;;;-145.23;100.00;58621.06;5019290;28;20694;-51
2022/05/25 10:00:17;;;;;;;2.10;1.73;;;;;;;-145.23;100.00;58621.06;5024958;28;20229;-53
2022/05/25 10:02:50;;;;;;;1.20;1.13;;;;;;;-145.23;100.00;58621.06;5027539;28;20224;-52
2022/05/25 10:05:19;;;;;;;1.45;1.25;;;;;;;-145.23;100.00;58621.06;5018229;28;20300;-54
2022/05/25 10:07:52;;;;;;;1.35;1.25;;;;;;;-145.23;100.00;58621.06;5023269;28;20237;-53
2022/05/25 10:10:27;;;;;;;2.35;1.70;;;;;;;-145.23;100.00;58621.06;5018422;28;20237;-52
2022/05/25 10:13:04;;;;;;;2.58;1.50;;;;;;;-145.23;100.00;58621.06;5015322;28;20780;-53
2022/05/25 10:15:35;;;;;;;4.72;1.48;;;;;;;-145.23;100.00;58621.06;5020026;28;20229;-52
2022/05/25 10:18:04;;;;;;;1.48;1.30;;;;;;;-145.23;100.00;58621.06;5021494;28;20286;-53
2022/05/25 10:20:34;;;;;;;1.60;1.50;;;;;;;-145.23;100.00;58621.06;5026008;28;20656;-53
2022/05/25 10:23:04;;;;;;;1.10;1.05;;;;;;;-145.23;100.00;58621.06;5023927;28;20279;-53
2022/05/25 10:25:35;;;;;;;1.73;1.38;;;;;;;-145.23;100.00;58621.06;5021297;28;20259;-52
2022/05/25 10:28:03;;;;;;;1.60;1.50;;;;;;;-145.23;100.00;58621.06;5018684;28;20228;-53
2022/05/25 10:38:52;;;;;;;2.17;1.55;;;;;;;-145.23;100.00;58621.06;5019264;28;20320;-52
2022/05/25 10:41:41;;;;;;;1.48;1.33;;;;;;;-145.23;100.00;58621.06;5019406;28;20302;-52
2022/05/25 10:44:13;;;;;;;1.88;1.48;;;;;;;-145.23;100.00;58621.06;5030413;28;20616;-52
2022/05/25 10:46:52;;;;;;;3.20;1.25;;;;;;;-145.23;100.00;58621.06;5029810;28;20236;-53
2022/05/25 10:49:24;;;;;;;2.03;1.17;;;;;;;-145.23;100.00;58621.06;5027362;28;20366;-53
2022/05/25 10:51:53;;;;;;;1.83;1.27;;;;;;;-145.23;100.00;58621.06;5028067;28;20232;-53
2022/05/25 10:57:21;;;;;;;1.17;1.08;;;;;;;-145.23;100.00;58621.06;5020700;28;20243;-53
2022/05/25 10:59:53;;;;;;;3.30;1.50;;;;;;;-145.23;100.00;58621.06;5030790;28;20263;-52
2022/05/25 11:02:33;;;;;;;1.65;1.38;;;;;;;-145.23;100.00;58621.06;5030835;28;20297;-53
2022/05/25 11:05:23;;;;;;;0.90;0.90;;;;;;;-145.23;100.00;58621.06;5030601;28;20228;-52
2022/05/25 11:07:51;;;;;;;2.20;1.70;;;;;;;-145.23;100.00;58621.06;5028487;28;20232;-53
2022/05/25 11:10:37;;;;;;;4.70;1.50;;;;;;;-145.23;100.00;58621.06;5028533;28;20290;-53
2022/05/25 11:13:14;;;;;;;1.13;1.00;;;;;;;-145.23;100.00;58621.06;5021559;28;20220;-60
2022/05/25 11:15:46;;;;;;;0.85;0.85;;;;;;;-145.23;100.00;58621.06;5030102;28;20243;-53
2022/05/25 11:18:30;;;;;;;1.25;0.82;;;;;;;-145.23;100.00;58621.06;5032750;28;20244;-52
2022/05/25 11:21:06;;;;;;;4.22;0.93;;;;;;;-145.23;100.00;58621.06;5042445;28;20232;-53
2022/05/25 11:23:46;;;;;;;3.65;1.42;;;;;;;-145.23;100.00;58621.06;5036098;28;20224;-52
2022/05/25 11:26:47;;;;;;;1.52;1.33;;;;;;;-145.23;100.00;58621.06;5036728;28;20208;-53
2022/05/25 11:29:24;;;;;;;1.48;0.95;;;;;;;-145.23;100.00;58621.06;5027546;28;20250;-53
2022/05/25 11:31:57;;;;;;;1.13;0.82;;;;;;;-145.23;100.00;58621.06;5022209;28;20228;-53
2022/05/25 11:34:32;;;;;;;0.93;0.82;;;;;;;-145.23;100.00;58621.06;5023157;28;20462;-52
2022/05/25 11:37:16;;;;;;;2.38;1.13;;;;;;;-145.23;100.00;58621.06;5025327;28;20224;-51
2022/05/25 11:39:50;;;;;;;0.90;0.90;;;;;;;-145.23;100.00;58621.06;5026923;28;20240;-53
2022/05/25 11:42:29;;;;;;;1.48;1.27;;;;;;;-145.23;100.00;58621.06;5027790;28;20238;-52
2022/05/25 11:45:07;;;;;;;1.33;0.80;;;;;;;-145.23;100.00;58621.06;5030419;28;20235;-51